createdAt,value
2018-12-19T00:00:05.747Z,2.86
2018-12-19T00:00:46.274Z,2.86
2018-12-19T00:01:26.873Z,2.89
2018-12-19T00:02:07.510Z,2.86
2018-12-19T00:02:48.065Z,2.89
2018-12-19T00:03:28.625Z,2.83
2018-12-19T00:04:09.171Z,2.9
2018-12-19T00:04:49.785Z,2.85
2018-12-19T00:05:30.327Z,2.9
2018-12-19T00:06:10.889Z,2.9
2018-12-19T00:06:51.464Z,2.85
2018-12-19T00:07:32.087Z,2.86
2018-12-19T00:08:13.217Z,2.89
2018-12-19T00:08:53.812Z,2.85
2018-12-19T00:09:34.451Z,2.72
2018-12-19T00:10:15.106Z,2.83
2018-12-19T00:10:55.656Z,2.83
2018-12-19T00:11:36.241Z,2.77
2018-12-19T00:12:16.918Z,2.79
2018-12-19T00:12:57.475Z,2.72
2018-12-19T00:13:38.075Z,2.85
2018-12-19T00:14:18.663Z,2.8
2018-12-19T00:14:59.247Z,2.77
2018-12-19T00:15:39.812Z,2.86
2018-12-19T00:16:20.451Z,2.82
2018-12-19T00:17:01.170Z,2.79
2018-12-19T00:17:41.763Z,2.83
2018-12-19T00:18:22.322Z,2.8
2018-12-19T00:19:03.878Z,2.82
2018-12-19T00:19:44.209Z,2.77
2018-12-19T00:20:24.882Z,2.89
2018-12-19T00:21:05.456Z,2.75
2018-12-19T00:21:46.052Z,2.79
2018-12-19T00:22:26.602Z,2.86
2018-12-19T00:23:07.156Z,2.85
2018-12-19T00:23:47.717Z,2.79
2018-12-19T00:24:28.272Z,2.82
2018-12-19T00:25:08.826Z,2.85
2018-12-19T00:25:49.379Z,2.74
2018-12-19T00:26:29.960Z,2.79
2018-12-19T00:27:10.533Z,2.86
2018-12-19T00:27:51.128Z,2.82
2018-12-19T00:28:31.676Z,2.77
2018-12-19T00:29:12.260Z,2.75
2018-12-19T00:29:52.792Z,2.87
2018-12-19T00:30:33.338Z,2.79
2018-12-19T00:31:13.888Z,2.71
2018-12-19T00:31:54.434Z,2.77
2018-12-19T00:32:35.019Z,2.9
2018-12-19T00:33:15.588Z,2.82
2018-12-19T00:33:56.182Z,2.79
2018-12-19T00:34:36.724Z,2.75
2018-12-19T00:35:17.287Z,2.8
2018-12-19T00:35:57.835Z,2.85
2018-12-19T00:36:38.411Z,2.87
2018-12-19T00:37:18.972Z,2.82
2018-12-19T00:37:59.543Z,2.87
2018-12-19T00:38:40.122Z,2.8
2018-12-19T00:39:20.683Z,2.9
2018-12-19T00:40:01.236Z,2.9
2018-12-19T00:40:41.934Z,2.83
2018-12-19T00:41:22.474Z,2.83
2018-12-19T00:42:03.025Z,2.89
2018-12-19T00:42:43.581Z,2.9
2018-12-19T00:43:24.135Z,2.89
2018-12-19T00:44:04.706Z,2.86
2018-12-19T00:44:45.294Z,2.83
2018-12-19T00:45:25.855Z,2.75
2018-12-19T00:46:06.406Z,2.79
2018-12-19T00:46:46.968Z,2.74
2018-12-19T00:47:27.519Z,2.79
2018-12-19T00:48:08.280Z,2.75
2018-12-19T00:48:48.891Z,2.86
2018-12-19T00:49:29.473Z,2.8
2018-12-19T00:50:10.032Z,2.8
2018-12-19T00:50:50.579Z,2.79
2018-12-19T00:51:31.141Z,2.77
2018-12-19T00:52:11.692Z,2.8
2018-12-19T00:52:52.237Z,2.77
2018-12-19T00:53:32.794Z,2.75
2018-12-19T00:54:13.338Z,2.75
2018-12-19T00:54:53.906Z,2.71
2018-12-19T00:55:34.478Z,2.67
2018-12-19T00:56:15.031Z,2.74
2018-12-19T00:56:55.606Z,2.75
2018-12-19T00:57:36.149Z,2.67
2018-12-19T00:58:16.698Z,2.77
2018-12-19T00:58:57.252Z,2.77
2018-12-19T00:59:37.824Z,2.77
2018-12-19T01:00:18.383Z,2.77
2018-12-19T01:00:58.945Z,2.71
2018-12-19T01:01:39.501Z,2.69
2018-12-19T01:02:20.092Z,2.67
2018-12-19T01:03:00.632Z,2.87
2018-12-19T01:03:41.209Z,2.79
2018-12-19T01:04:21.763Z,2.77
2018-12-19T01:05:02.305Z,2.86
2018-12-19T01:05:42.859Z,2.8
2018-12-19T01:06:23.393Z,2.83
2018-12-19T01:07:03.954Z,2.83
2018-12-19T01:07:44.492Z,2.9
2018-12-19T01:08:25.037Z,2.82
2018-12-19T01:09:05.609Z,2.9
2018-12-19T01:09:46.182Z,2.85
2018-12-19T01:10:26.720Z,2.86
2018-12-19T01:11:07.262Z,2.82
2018-12-19T01:11:47.813Z,2.85
2018-12-19T01:12:28.359Z,2.93
2018-12-19T01:13:08.911Z,2.86
2018-12-19T01:13:49.464Z,2.87
2018-12-19T01:14:30.006Z,2.82
2018-12-19T01:15:10.556Z,2.86
2018-12-19T01:15:51.121Z,2.89
2018-12-19T01:16:31.655Z,2.85
2018-12-19T01:17:12.203Z,2.93
2018-12-19T01:17:52.780Z,2.93
2018-12-19T01:18:33.347Z,2.86
2018-12-19T01:19:13.904Z,2.9
2018-12-19T01:19:54.475Z,2.83
2018-12-19T01:20:35.026Z,2.9
2018-12-19T01:21:15.576Z,2.92
2018-12-19T01:21:56.117Z,2.87
2018-12-19T01:22:36.694Z,2.86
2018-12-19T01:23:17.231Z,2.85
2018-12-19T01:23:57.781Z,2.89
2018-12-19T01:24:38.328Z,2.87
2018-12-19T01:25:18.873Z,2.86
2018-12-19T01:25:59.455Z,2.83
2018-12-19T01:26:39.985Z,2.87
2018-12-19T01:27:20.545Z,2.95
2018-12-19T01:28:01.102Z,2.92
2018-12-19T01:28:41.679Z,2.92
2018-12-19T01:29:22.218Z,2.85
2018-12-19T01:30:02.788Z,2.87
2018-12-19T01:30:43.342Z,3
2018-12-19T01:31:23.902Z,2.9
2018-12-19T01:32:04.457Z,2.89
2018-12-19T01:32:45.014Z,3
2018-12-19T01:33:25.567Z,2.98
2018-12-19T01:34:06.122Z,3.04
2018-12-19T01:34:46.676Z,2.97
2018-12-19T01:35:27.267Z,3.05
2018-12-19T01:36:07.828Z,3.01
2018-12-19T01:36:48.400Z,3.04
2018-12-19T01:37:28.953Z,3.08
2018-12-19T01:38:09.483Z,3.07
2018-12-19T01:38:50.062Z,3.01
2018-12-19T01:39:30.626Z,3.08
2018-12-19T01:40:11.213Z,3.04
2018-12-19T01:40:51.772Z,3.08
2018-12-19T01:41:32.327Z,3.07
2018-12-19T01:42:12.892Z,3.08
2018-12-19T01:42:53.446Z,3.08
2018-12-19T01:43:34.006Z,3.14
2018-12-19T01:44:14.570Z,3.04
2018-12-19T01:44:55.115Z,3.08
2018-12-19T01:45:35.675Z,3.13
2018-12-19T01:46:16.215Z,3.03
2018-12-19T01:46:56.763Z,3.1
2018-12-19T01:47:37.322Z,3.07
2018-12-19T01:48:17.897Z,3.14
2018-12-19T01:48:58.447Z,3.08
2018-12-19T01:49:39.811Z,3.1
2018-12-19T01:50:20.363Z,3.08
2018-12-19T01:51:00.922Z,3.05
2018-12-19T01:51:41.532Z,3.08
2018-12-19T01:52:22.050Z,3.05
2018-12-19T01:53:02.599Z,3.08
2018-12-19T01:53:43.172Z,3.1
2018-12-19T01:54:23.730Z,3.11
2018-12-19T01:55:04.279Z,3.13
2018-12-19T01:55:44.878Z,3.05
2018-12-19T01:56:25.438Z,3.05
2018-12-19T01:57:06.005Z,3.08
2018-12-19T01:57:46.585Z,3.11
2018-12-19T01:58:27.162Z,3.03
2018-12-19T01:59:07.729Z,3.05
2018-12-19T01:59:48.295Z,3.04
2018-12-19T02:00:28.865Z,3.07
2018-12-19T02:01:09.426Z,3.05
2018-12-19T02:01:49.985Z,3.08
2018-12-19T02:02:30.538Z,3.16
2018-12-19T02:03:11.086Z,3.16
2018-12-19T02:03:51.653Z,3.08
2018-12-19T02:04:32.197Z,3.08
2018-12-19T02:05:12.752Z,3.18
2018-12-19T02:05:53.302Z,3.1
2018-12-19T02:06:33.871Z,3.04
2018-12-19T02:07:14.424Z,3.18
2018-12-19T02:07:55.035Z,3.16
2018-12-19T02:08:35.606Z,3.18
2018-12-19T02:09:16.163Z,3.13
2018-12-19T02:09:56.718Z,3.14
2018-12-19T02:10:37.264Z,3.21
2018-12-19T02:11:17.849Z,3.18
2018-12-19T02:11:58.384Z,3.13
2018-12-19T02:12:38.967Z,3.14
2018-12-19T02:13:19.529Z,3.07
2018-12-19T02:14:00.143Z,3.14
2018-12-19T02:14:40.720Z,3.14
2018-12-19T02:15:21.298Z,3.1
2018-12-19T02:16:01.863Z,3.18
2018-12-19T02:16:42.422Z,3.18
2018-12-19T02:17:22.971Z,3.04
2018-12-19T02:18:03.534Z,3.08
2018-12-19T02:18:44.074Z,3.13
2018-12-19T02:19:24.632Z,3.1
2018-12-19T02:20:05.201Z,3.11
2018-12-19T02:20:45.759Z,3.13
2018-12-19T02:21:26.314Z,3.08
2018-12-19T02:22:06.888Z,3.08
2018-12-19T02:22:47.449Z,3.14
2018-12-19T02:23:28.036Z,3.1
2018-12-19T02:24:08.590Z,3.11
2018-12-19T02:24:49.138Z,3.07
2018-12-19T02:25:29.695Z,3.11
2018-12-19T02:26:10.272Z,3.11
2018-12-19T02:26:50.830Z,3.1
2018-12-19T02:27:31.375Z,3.01
2018-12-19T02:28:11.931Z,3.04
2018-12-19T02:28:52.493Z,3.03
2018-12-19T02:29:33.080Z,3.04
2018-12-19T02:30:13.642Z,3.03
2018-12-19T02:30:54.195Z,3
2018-12-19T02:31:34.796Z,2.89
2018-12-19T02:32:15.319Z,2.95
2018-12-19T02:32:55.878Z,2.82
2018-12-19T02:33:36.437Z,2.87
2018-12-19T02:34:16.995Z,2.86
2018-12-19T02:34:57.547Z,2.86
2018-12-19T02:35:38.098Z,2.86
2018-12-19T02:36:18.888Z,3.01
2018-12-19T02:36:59.445Z,2.87
2018-12-19T02:37:40.016Z,2.87
2018-12-19T02:38:20.570Z,2.86
2018-12-19T02:39:01.134Z,2.97
2018-12-19T02:39:41.676Z,3.01
2018-12-19T02:40:22.228Z,2.9
2018-12-19T02:41:02.777Z,2.83
2018-12-19T02:41:43.324Z,2.86
2018-12-19T02:42:23.882Z,2.86
2018-12-19T02:43:04.441Z,2.89
2018-12-19T02:43:44.995Z,2.89
2018-12-19T02:44:25.581Z,2.89
2018-12-19T02:45:06.161Z,2.86
2018-12-19T02:45:46.719Z,2.89
2018-12-19T02:46:27.282Z,2.92
2018-12-19T02:47:07.829Z,2.8
2018-12-19T02:47:48.383Z,2.86
2018-12-19T02:48:28.932Z,2.92
2018-12-19T02:49:09.503Z,2.87
2018-12-19T02:49:50.028Z,2.87
2018-12-19T02:50:30.585Z,2.85
2018-12-19T02:51:11.147Z,2.85
2018-12-19T02:51:51.719Z,2.92
2018-12-19T02:52:32.295Z,2.83
2018-12-19T02:53:12.854Z,2.86
2018-12-19T02:53:53.409Z,2.82
2018-12-19T02:54:33.967Z,2.95
2018-12-19T02:55:14.528Z,2.86
2018-12-19T02:55:55.085Z,2.83
2018-12-19T02:56:35.664Z,2.92
2018-12-19T02:57:16.238Z,2.86
2018-12-19T02:57:56.799Z,2.86
2018-12-19T02:58:37.356Z,2.9
2018-12-19T02:59:17.939Z,2.9
2018-12-19T02:59:58.482Z,2.86
2018-12-19T03:00:39.038Z,2.83
2018-12-19T03:01:19.583Z,2.89
2018-12-19T03:02:00.133Z,2.87
2018-12-19T03:02:40.703Z,2.86
2018-12-19T03:03:21.253Z,2.83
2018-12-19T03:04:01.836Z,2.82
2018-12-19T03:04:42.414Z,2.9
2018-12-19T03:05:22.996Z,2.85
2018-12-19T03:06:03.556Z,2.79
2018-12-19T03:06:44.097Z,2.82
2018-12-19T03:07:24.677Z,2.89
2018-12-19T03:08:05.232Z,2.9
2018-12-19T03:08:45.787Z,2.92
2018-12-19T03:09:26.338Z,2.89
2018-12-19T03:10:06.903Z,2.89
2018-12-19T03:10:47.467Z,2.86
2018-12-19T03:11:28.028Z,2.85
2018-12-19T03:12:08.607Z,2.93
2018-12-19T03:12:49.180Z,2.86
2018-12-19T03:13:29.733Z,2.86
2018-12-19T03:14:10.285Z,2.89
2018-12-19T03:14:50.844Z,2.92
2018-12-19T03:15:31.422Z,2.92
2018-12-19T03:16:11.994Z,2.87
2018-12-19T03:16:52.567Z,2.86
2018-12-19T03:17:33.122Z,2.82
2018-12-19T03:18:13.684Z,2.82
2018-12-19T03:18:54.242Z,2.85
2018-12-19T03:19:34.792Z,2.79
2018-12-19T03:20:15.351Z,2.83
2018-12-19T03:20:55.940Z,2.87
2018-12-19T03:21:36.497Z,2.86
2018-12-19T03:22:17.054Z,2.83
2018-12-19T03:22:57.610Z,2.83
2018-12-19T03:23:38.172Z,2.83
2018-12-19T03:24:18.739Z,2.85
2018-12-19T03:24:59.295Z,2.89
2018-12-19T03:25:39.847Z,2.72
2018-12-19T03:26:20.412Z,2.79
2018-12-19T03:27:00.953Z,2.72
2018-12-19T03:27:41.502Z,2.83
2018-12-19T03:28:22.052Z,2.83
2018-12-19T03:29:02.602Z,2.89
2018-12-19T03:29:43.167Z,2.87
2018-12-19T03:30:23.734Z,2.77
2018-12-19T03:31:04.298Z,2.72
2018-12-19T03:31:44.864Z,2.71
2018-12-19T03:32:25.424Z,2.68
2018-12-19T03:33:05.958Z,2.72
2018-12-19T03:33:46.508Z,2.72
2018-12-19T03:34:27.063Z,2.74
2018-12-19T03:35:07.632Z,2.72
2018-12-19T03:35:48.200Z,2.77
2018-12-19T03:36:29.131Z,2.72
2018-12-19T03:37:09.709Z,2.77
2018-12-19T03:37:50.276Z,2.75
2018-12-19T03:38:30.827Z,2.72
2018-12-19T03:39:11.376Z,2.77
2018-12-19T03:39:51.930Z,2.72
2018-12-19T03:40:32.504Z,2.69
2018-12-19T03:41:13.069Z,2.75
2018-12-19T03:41:53.671Z,2.67
2018-12-19T03:42:34.253Z,2.71
2018-12-19T03:43:14.801Z,2.75
2018-12-19T03:43:55.353Z,2.71
2018-12-19T03:44:35.917Z,2.72
2018-12-19T03:45:16.473Z,2.72
2018-12-19T03:45:57.037Z,2.72
2018-12-19T03:46:37.623Z,2.69
2018-12-19T03:47:18.172Z,2.71
2018-12-19T03:47:58.729Z,2.69
2018-12-19T03:48:39.294Z,2.64
2018-12-19T03:49:19.870Z,2.62
2018-12-19T03:50:00.427Z,2.65
2018-12-19T03:50:40.987Z,2.68
2018-12-19T03:51:21.530Z,2.68
2018-12-19T03:52:02.098Z,2.68
2018-12-19T03:52:42.649Z,2.65
2018-12-19T03:53:23.223Z,2.64
2018-12-19T03:54:03.764Z,2.68
2018-12-19T03:54:44.328Z,2.74
2018-12-19T03:55:24.875Z,2.61
2018-12-19T03:56:05.437Z,2.62
2018-12-19T03:56:45.975Z,2.67
2018-12-19T03:57:26.531Z,2.69
2018-12-19T03:58:07.085Z,2.69
2018-12-19T03:58:47.652Z,2.72
2018-12-19T03:59:28.214Z,2.71
2018-12-19T04:00:08.764Z,2.71
2018-12-19T04:00:49.313Z,2.75
2018-12-19T04:01:29.884Z,2.77
2018-12-19T04:02:10.439Z,2.68
2018-12-19T04:02:51.008Z,2.67
2018-12-19T04:03:31.544Z,2.68
2018-12-19T04:04:12.143Z,2.61
2018-12-19T04:04:52.717Z,2.79
2018-12-19T04:05:33.286Z,2.74
2018-12-19T04:06:13.830Z,2.71
2018-12-19T04:06:54.366Z,2.77
2018-12-19T04:07:34.953Z,2.75
2018-12-19T04:08:15.512Z,2.72
2018-12-19T04:08:56.130Z,2.68
2018-12-19T04:09:36.685Z,2.74
2018-12-19T04:10:17.242Z,2.62
2018-12-19T04:10:57.829Z,2.65
2018-12-19T04:11:38.386Z,2.69
2018-12-19T04:12:18.957Z,2.67
2018-12-19T04:12:59.512Z,2.62
2018-12-19T04:13:40.088Z,2.68
2018-12-19T04:14:20.656Z,2.68
2018-12-19T04:15:01.218Z,2.65
2018-12-19T04:15:41.769Z,2.67
2018-12-19T04:16:22.337Z,2.64
2018-12-19T04:17:02.891Z,2.69
2018-12-19T04:17:43.468Z,2.65
2018-12-19T04:18:24.057Z,2.68
2018-12-19T04:19:04.593Z,2.61
2018-12-19T04:19:45.173Z,2.72
2018-12-19T04:20:25.733Z,2.64
2018-12-19T04:21:06.297Z,2.71
2018-12-19T04:21:46.847Z,2.69
2018-12-19T04:22:27.425Z,2.75
2018-12-19T04:23:08.050Z,2.74
2018-12-19T04:23:48.600Z,2.72
2018-12-19T04:24:29.135Z,2.68
2018-12-19T04:25:09.733Z,2.65
2018-12-19T04:25:50.281Z,2.67
2018-12-19T04:26:30.861Z,2.6
2018-12-19T04:27:11.411Z,2.67
2018-12-19T04:27:51.975Z,2.68
2018-12-19T04:28:32.531Z,2.6
2018-12-19T04:29:13.096Z,2.62
2018-12-19T04:29:53.656Z,2.67
2018-12-19T04:30:34.255Z,2.67
2018-12-19T04:31:14.814Z,2.62
2018-12-19T04:31:55.373Z,2.65
2018-12-19T04:32:35.922Z,2.69
2018-12-19T04:33:16.485Z,2.69
2018-12-19T04:33:57.013Z,2.67
2018-12-19T04:34:37.584Z,2.71
2018-12-19T04:35:18.156Z,2.65
2018-12-19T04:35:58.715Z,2.62
2018-12-19T04:36:39.508Z,2.72
2018-12-19T04:37:20.059Z,2.69
2018-12-19T04:38:00.826Z,2.69
2018-12-19T04:38:41.386Z,2.74
2018-12-19T04:39:21.986Z,2.71
2018-12-19T04:40:05.554Z,2.69
2018-12-19T04:40:43.122Z,2.71
2018-12-19T04:41:23.680Z,2.71
2018-12-19T04:42:04.268Z,2.77
2018-12-19T04:42:44.810Z,2.74
2018-12-19T04:43:25.373Z,2.79
2018-12-19T04:44:05.936Z,2.77
2018-12-19T04:44:46.529Z,2.77
2018-12-19T04:45:27.088Z,2.75
2018-12-19T04:46:07.658Z,2.77
2018-12-19T04:46:48.216Z,2.77
2018-12-19T04:47:28.774Z,2.86
2018-12-19T04:48:09.310Z,2.75
2018-12-19T04:48:49.885Z,2.71
2018-12-19T04:49:30.423Z,2.74
2018-12-19T04:50:10.979Z,2.67
2018-12-19T04:50:51.535Z,2.79
2018-12-19T04:51:32.348Z,2.72
2018-12-19T04:52:12.923Z,2.71
2018-12-19T04:52:53.484Z,2.67
2018-12-19T04:53:34.043Z,2.67
2018-12-19T04:54:14.582Z,2.61
2018-12-19T04:54:55.164Z,2.75
2018-12-19T04:55:35.719Z,2.74
2018-12-19T04:56:16.345Z,2.6
2018-12-19T04:56:56.872Z,2.68
2018-12-19T04:57:37.448Z,2.65
2018-12-19T04:58:18.034Z,2.67
2018-12-19T04:58:58.799Z,2.65
2018-12-19T04:59:39.426Z,2.64
2018-12-19T05:00:19.973Z,2.64
2018-12-19T05:01:00.576Z,2.68
2018-12-19T05:01:41.123Z,2.62
2018-12-19T05:02:21.722Z,2.72
2018-12-19T05:03:02.332Z,2.64
2018-12-19T05:03:42.894Z,2.65
2018-12-19T05:04:27.609Z,2.68
2018-12-19T05:05:09.586Z,2.67
2018-12-19T05:05:50.175Z,2.64
2018-12-19T05:06:30.733Z,2.65
2018-12-19T05:07:11.342Z,2.67
2018-12-19T05:07:52.453Z,2.67
2018-12-19T05:08:33.321Z,2.67
2018-12-19T05:09:14.108Z,2.67
2018-12-19T05:09:54.747Z,2.71
2018-12-19T05:10:35.452Z,2.71
2018-12-19T05:11:17.396Z,2.69
2018-12-19T05:11:58.347Z,2.56
2018-12-19T05:12:39.204Z,2.6
2018-12-19T05:13:20.142Z,2.69
2018-12-19T05:14:01.035Z,2.65
2018-12-19T05:14:41.982Z,2.65
2018-12-19T05:15:22.863Z,2.68
2018-12-19T05:16:03.537Z,2.64
2018-12-19T05:16:44.285Z,2.68
2018-12-19T05:17:25.170Z,2.65
2018-12-19T05:18:05.971Z,2.62
2018-12-19T05:18:46.612Z,2.68
2018-12-19T05:19:27.440Z,2.62
2018-12-19T05:20:08.108Z,2.69
2018-12-19T05:20:48.951Z,2.57
2018-12-19T05:21:30.082Z,2.62
2018-12-19T05:22:10.741Z,2.62
2018-12-19T05:22:51.470Z,2.6
2018-12-19T05:23:32.288Z,2.64
2018-12-19T05:24:13.236Z,2.61
2018-12-19T05:24:53.810Z,2.61
2018-12-19T05:25:34.408Z,2.65
2018-12-19T05:26:14.983Z,2.69
2018-12-19T05:26:55.551Z,2.61
2018-12-19T05:27:36.125Z,2.6
2018-12-19T05:28:16.685Z,2.54
2018-12-19T05:28:57.308Z,2.57
2018-12-19T05:29:37.865Z,2.6
2018-12-19T05:30:18.418Z,2.61
2018-12-19T05:30:58.977Z,2.44
2018-12-19T05:31:39.508Z,2.57
2018-12-19T05:32:20.077Z,2.56
2018-12-19T05:33:00.647Z,2.61
2018-12-19T05:33:41.179Z,2.51
2018-12-19T05:34:21.739Z,2.56
2018-12-19T05:35:02.329Z,2.61
2018-12-19T05:35:42.919Z,2.57
2018-12-19T05:36:23.473Z,2.54
2018-12-19T05:37:04.035Z,2.61
2018-12-19T05:37:44.570Z,2.65
2018-12-19T05:38:25.139Z,2.61
2018-12-19T05:39:05.686Z,2.62
2018-12-19T05:39:46.327Z,2.62
2018-12-19T05:40:26.925Z,2.61
2018-12-19T05:41:07.486Z,2.62
2018-12-19T05:41:48.102Z,2.54
2018-12-19T05:42:28.656Z,2.62
2018-12-19T05:43:09.288Z,2.61
2018-12-19T05:43:49.975Z,2.6
2018-12-19T05:44:30.660Z,2.57
2018-12-19T05:45:11.238Z,2.49
2018-12-19T05:45:51.791Z,2.56
2018-12-19T05:46:32.356Z,2.61
2018-12-19T05:47:12.934Z,2.6
2018-12-19T05:47:53.541Z,2.6
2018-12-19T05:48:34.126Z,2.65
2018-12-19T05:49:14.833Z,2.61
2018-12-19T05:49:55.392Z,2.61
2018-12-19T05:50:35.936Z,2.57
2018-12-19T05:51:16.497Z,2.67
2018-12-19T05:51:57.108Z,2.68
2018-12-19T05:52:37.686Z,2.68
2018-12-19T05:53:18.352Z,2.62
2018-12-19T05:53:58.904Z,2.68
2018-12-19T05:54:39.474Z,2.69
2018-12-19T05:55:20.021Z,2.64
2018-12-19T05:56:00.616Z,2.74
2018-12-19T05:56:41.148Z,2.77
2018-12-19T05:57:21.802Z,2.71
2018-12-19T05:58:02.344Z,2.68
2018-12-19T05:58:43.099Z,2.62
2018-12-19T05:59:23.885Z,2.79
2018-12-19T06:00:04.560Z,2.68
2018-12-19T06:00:45.283Z,2.68
2018-12-19T06:01:26.269Z,2.68
2018-12-19T06:02:06.843Z,2.67
2018-12-19T06:02:47.408Z,2.68
2018-12-19T06:03:28.018Z,2.72
2018-12-19T06:04:08.584Z,2.71
2018-12-19T06:04:49.350Z,2.71
2018-12-19T06:05:29.907Z,2.72
2018-12-19T06:06:10.772Z,2.75
2018-12-19T06:06:51.253Z,2.72
2018-12-19T06:07:31.808Z,2.79
2018-12-19T06:08:12.377Z,2.79
2018-12-19T06:08:52.928Z,2.82
2018-12-19T06:09:33.480Z,2.87
2018-12-19T06:10:14.033Z,2.85
2018-12-19T06:10:54.579Z,2.85
2018-12-19T06:11:35.150Z,2.8
2018-12-19T06:12:15.693Z,2.82
2018-12-19T06:12:56.283Z,2.87
2018-12-19T06:13:36.812Z,2.82
2018-12-19T06:14:17.393Z,2.75
2018-12-19T06:14:57.949Z,2.83
2018-12-19T06:17:52.242Z,2.75
2018-12-19T06:18:32.784Z,2.79
2018-12-19T06:19:13.325Z,2.71
2018-12-19T06:19:53.869Z,2.74
2018-12-19T06:20:34.427Z,2.74
2018-12-19T06:21:15.017Z,2.72
2018-12-19T06:21:55.573Z,2.75
2018-12-19T06:22:36.127Z,2.79
2018-12-19T06:23:16.688Z,2.72
2018-12-19T06:23:57.240Z,2.67
2018-12-19T06:24:37.791Z,2.71
2018-12-19T06:25:18.350Z,2.72
2018-12-19T06:25:58.887Z,2.77
2018-12-19T06:26:39.458Z,2.72
2018-12-19T06:27:20.017Z,2.67
2018-12-19T06:28:00.568Z,2.72
2018-12-19T06:28:41.125Z,2.68
2018-12-19T06:29:21.712Z,2.72
2018-12-19T06:30:02.273Z,2.71
2018-12-19T06:30:42.817Z,2.74
2018-12-19T06:31:23.365Z,2.77
2018-12-19T06:32:03.934Z,2.64
2018-12-19T06:32:44.630Z,2.72
2018-12-19T06:33:25.188Z,2.71
2018-12-19T06:34:05.750Z,2.72
2018-12-19T06:34:46.455Z,2.74
2018-12-19T06:35:27.014Z,2.68
2018-12-19T06:36:07.780Z,2.65
2018-12-19T06:36:48.370Z,2.72
2018-12-19T06:37:28.927Z,2.69
2018-12-19T06:38:09.484Z,2.67
2018-12-19T06:38:50.086Z,2.69
2018-12-19T06:39:30.689Z,2.64
2018-12-19T06:40:11.236Z,2.71
2018-12-19T06:40:51.821Z,2.65
2018-12-19T06:41:32.360Z,2.72
2018-12-19T06:42:12.924Z,2.64
2018-12-19T06:42:53.470Z,2.74
2018-12-19T06:43:34.020Z,2.67
2018-12-19T06:44:14.658Z,2.72
2018-12-19T06:44:55.258Z,2.74
2018-12-19T06:45:35.797Z,2.74
2018-12-19T06:46:16.841Z,2.67
2018-12-19T06:46:57.480Z,2.62
2018-12-19T06:47:38.029Z,2.71
2018-12-19T06:48:18.660Z,2.69
2018-12-19T06:49:00.647Z,2.69
2018-12-19T06:49:41.257Z,2.72
2018-12-19T06:50:21.865Z,2.68
2018-12-19T06:51:02.475Z,2.68
2018-12-19T06:51:43.297Z,2.71
2018-12-19T06:52:24.463Z,2.71
2018-12-19T06:53:04.722Z,2.68
2018-12-19T06:53:45.359Z,2.68
2018-12-19T06:54:25.967Z,2.68
2018-12-19T06:55:06.702Z,2.71
2018-12-19T06:55:47.313Z,2.68
2018-12-19T06:56:27.922Z,2.64
2018-12-19T06:57:09.632Z,2.65
2018-12-19T06:57:49.186Z,2.68
2018-12-19T06:58:29.738Z,2.69
2018-12-19T06:59:10.312Z,2.68
2018-12-19T06:59:50.881Z,2.75
2018-12-19T07:00:31.453Z,2.71
2018-12-19T07:01:12.091Z,2.69
2018-12-19T07:01:52.751Z,2.79
2018-12-19T07:02:33.371Z,2.74
2018-12-19T07:03:14.100Z,2.74
2018-12-19T07:03:54.630Z,2.77
2018-12-19T07:04:35.718Z,2.71
2018-12-19T07:05:16.703Z,2.75
2018-12-19T07:05:57.510Z,2.74
2018-12-19T07:06:38.111Z,2.72
2018-12-19T07:07:18.753Z,2.72
2018-12-19T07:07:59.364Z,2.69
2018-12-19T07:08:41.441Z,2.75
2018-12-19T07:09:20.777Z,2.69
2018-12-19T07:10:01.446Z,2.69
2018-12-19T07:10:42.796Z,2.71
2018-12-19T07:11:23.454Z,2.71
2018-12-19T07:12:04.805Z,2.79
2018-12-19T07:12:45.375Z,2.79
2018-12-19T07:13:25.956Z,2.64
2018-12-19T07:14:06.508Z,2.75
2018-12-19T07:14:47.073Z,2.71
2018-12-19T07:15:27.627Z,2.69
2018-12-19T07:16:08.239Z,2.74
2018-12-19T07:16:48.781Z,2.72
2018-12-19T07:17:29.329Z,2.79
2018-12-19T07:18:09.875Z,2.67
2018-12-19T07:18:50.433Z,2.61
2018-12-19T07:19:30.999Z,2.61
2018-12-19T07:20:11.563Z,2.62
2018-12-19T07:20:52.115Z,2.64
2018-12-19T07:21:32.683Z,2.64
2018-12-19T07:22:13.246Z,2.67
2018-12-19T07:22:53.813Z,2.64
2018-12-19T07:23:34.369Z,2.67
2018-12-19T07:24:14.933Z,2.64
2018-12-19T07:24:55.497Z,2.71
2018-12-19T07:25:36.066Z,2.67
2018-12-19T07:26:16.637Z,2.67
2018-12-19T07:26:57.214Z,2.71
2018-12-19T07:27:37.787Z,2.71
2018-12-19T07:28:18.338Z,2.69
2018-12-19T07:28:58.891Z,2.75
2018-12-19T07:29:39.536Z,2.68
2018-12-19T07:30:20.107Z,2.74
2018-12-19T07:31:00.656Z,2.64
2018-12-19T07:31:41.196Z,2.65
2018-12-19T07:32:21.746Z,2.74
2018-12-19T07:33:02.323Z,2.69
2018-12-19T07:33:43.119Z,2.8
2018-12-19T07:34:23.446Z,2.74
2018-12-19T07:35:04.011Z,2.77
2018-12-19T07:35:44.559Z,2.72
2018-12-19T07:36:25.371Z,2.77
2018-12-19T07:37:05.964Z,2.72
2018-12-19T07:37:46.514Z,2.77
2018-12-19T07:38:27.085Z,2.75
2018-12-19T07:39:07.640Z,2.71
2018-12-19T07:39:48.204Z,2.77
2018-12-19T07:40:28.766Z,2.74
2018-12-19T07:41:09.334Z,2.8
2018-12-19T07:41:49.898Z,2.74
2018-12-19T07:42:30.454Z,2.83
2018-12-19T07:43:11.052Z,2.82
2018-12-19T07:43:51.593Z,2.83
2018-12-19T07:44:32.154Z,2.8
2018-12-19T07:45:12.710Z,2.75
2018-12-19T07:45:53.264Z,2.75
2018-12-19T07:46:33.835Z,2.79
2018-12-19T07:47:14.384Z,2.79
2018-12-19T07:47:55.002Z,2.82
2018-12-19T07:48:35.573Z,2.77
2018-12-19T07:49:16.137Z,2.8
2018-12-19T07:49:56.710Z,2.77
2018-12-19T07:50:37.281Z,2.8
2018-12-19T07:51:17.840Z,2.8
2018-12-19T07:51:58.412Z,2.74
2018-12-19T07:52:38.965Z,2.8
2018-12-19T07:53:19.518Z,2.74
2018-12-19T07:54:00.070Z,2.87
2018-12-19T07:54:40.626Z,2.75
2018-12-19T07:55:21.177Z,2.77
2018-12-19T07:56:01.727Z,2.75
2018-12-19T07:56:42.303Z,2.79
2018-12-19T07:57:22.851Z,2.83
2018-12-19T07:58:03.418Z,2.83
2018-12-19T07:58:43.986Z,2.77
2018-12-19T07:59:24.608Z,2.87
2018-12-19T08:00:05.169Z,2.85
2018-12-19T08:00:45.719Z,2.82
2018-12-19T08:01:26.281Z,2.82
2018-12-19T08:02:06.832Z,2.83
2018-12-19T08:02:47.401Z,2.77
2018-12-19T08:03:27.963Z,2.72
2018-12-19T08:04:08.538Z,2.77
2018-12-19T08:04:49.119Z,2.85
2018-12-19T08:05:29.715Z,2.8
2018-12-19T08:06:10.285Z,2.69
2018-12-19T08:06:50.843Z,2.87
2018-12-19T08:07:31.452Z,2.87
2018-12-19T08:08:11.998Z,2.8
2018-12-19T08:08:52.559Z,2.82
2018-12-19T08:09:33.133Z,2.85
2018-12-19T08:10:13.678Z,2.82
2018-12-19T08:10:54.288Z,2.87
2018-12-19T08:11:34.910Z,2.71
2018-12-19T08:12:15.427Z,2.85
2018-12-19T08:12:55.990Z,2.83
2018-12-19T08:13:36.617Z,2.79
2018-12-19T08:14:17.174Z,2.75
2018-12-19T08:14:57.717Z,2.75
2018-12-19T08:15:38.276Z,2.86
2018-12-19T08:16:18.844Z,2.82
2018-12-19T08:16:59.420Z,2.8
2018-12-19T08:17:39.975Z,2.82
2018-12-19T08:18:20.588Z,2.79
2018-12-19T08:19:01.149Z,2.79
2018-12-19T08:19:41.712Z,2.77
2018-12-19T08:20:22.262Z,2.79
2018-12-19T08:21:02.834Z,2.75
2018-12-19T08:21:43.386Z,2.8
2018-12-19T08:22:23.945Z,2.85
2018-12-19T08:23:04.500Z,2.87
2018-12-19T08:23:45.096Z,2.85
2018-12-19T08:24:25.638Z,2.83
2018-12-19T08:25:06.184Z,2.86
2018-12-19T08:25:46.734Z,2.72
2018-12-19T08:26:27.303Z,2.72
2018-12-19T08:27:07.861Z,2.74
2018-12-19T08:27:48.442Z,2.8
2018-12-19T08:28:28.997Z,2.77
2018-12-19T08:29:09.557Z,2.74
2018-12-19T08:29:50.108Z,2.83
2018-12-19T08:30:30.662Z,2.82
2018-12-19T08:31:11.231Z,2.82
2018-12-19T08:31:51.777Z,2.86
2018-12-19T08:32:32.350Z,2.86
2018-12-19T08:33:12.883Z,2.93
2018-12-19T08:33:53.467Z,2.92
2018-12-19T08:34:34.034Z,2.83
2018-12-19T08:35:14.608Z,2.85
2018-12-19T08:35:55.165Z,2.89
2018-12-19T08:36:35.962Z,2.92
2018-12-19T08:37:16.515Z,3.03
2018-12-19T08:37:57.079Z,2.85
2018-12-19T08:38:37.636Z,2.86
2018-12-19T08:39:18.201Z,2.86
2018-12-19T08:39:58.746Z,2.87
2018-12-19T08:40:39.322Z,2.92
2018-12-19T08:41:19.863Z,2.85
2018-12-19T08:42:00.417Z,2.89
2018-12-19T08:42:40.981Z,2.97
2018-12-19T08:43:21.534Z,2.93
2018-12-19T08:44:02.099Z,2.98
2018-12-19T08:44:42.640Z,2.92
2018-12-19T08:45:23.213Z,2.95
2018-12-19T08:46:03.759Z,3
2018-12-19T08:46:44.347Z,3
2018-12-19T08:47:24.919Z,3.04
2018-12-19T08:48:05.483Z,3
2018-12-19T08:48:46.037Z,3
2018-12-19T08:49:26.584Z,3
2018-12-19T08:50:07.159Z,3.04
2018-12-19T08:50:47.712Z,3.01
2018-12-19T08:51:28.276Z,2.98
2018-12-19T08:52:08.829Z,3
2018-12-19T08:52:49.405Z,3.01
2018-12-19T08:53:29.985Z,3.01
2018-12-19T08:54:10.545Z,2.95
2018-12-19T08:54:51.104Z,3
2018-12-19T08:55:31.664Z,3.03
2018-12-19T08:56:12.212Z,3.04
2018-12-19T08:56:52.784Z,3.07
2018-12-19T08:57:33.335Z,3.01
2018-12-19T08:58:13.896Z,2.97
2018-12-19T08:58:54.458Z,3.07
2018-12-19T08:59:35.009Z,3.07
2018-12-19T09:00:15.566Z,3.05
2018-12-19T09:00:56.122Z,2.98
2018-12-19T09:01:36.664Z,2.97
2018-12-19T09:02:17.238Z,3.03
2018-12-19T09:02:57.853Z,3.08
2018-12-19T09:03:38.415Z,3.05
2018-12-19T09:04:25.610Z,3.13